sensor_id;sensor_type;location;lat;lon;timestamp;pressure;altitude;pressure_sealevel;temperature;humidity
26937;BME280;14495;48.116;11.676;2022-08-04T00:02:37;95519.56;;;20.30;100.00
26937;BME280;14495;48.116;11.676;2022-08-04T00:05:15;95503.34;;;20.07;100.00
26937;BME280;14495;48.116;11.676;2022-08-04T00:07:53;95509.81;;;20.04;100.00
26937;BME280;14495;48.116;11.676;2022-08-04T00:10:27;95512.00;;;20.09;100.00
26937;BME280;14495;48.116;11.676;2022-08-04T00:12:54;95510.94;;;20.02;100.00
26937;BME280;14495;48.116;11.676;2022-08-04T00:15:20;95518.19;;;19.92;100.00
26937;BME280;14495;48.116;11.676;2022-08-04T00:17:59;95511.47;;;19.79;100.00
26937;BME280;14495;48.116;11.676;2022-08-04T00:20:32;95511.31;;;19.81;100.00
26937;BME280;14495;48.116;11.676;2022-08-04T00:22:59;95513.50;;;19.85;100.00
26937;BME280;14495;48.116;11.676;2022-08-04T00:25:25;95507.81;;;19.80;100.00
26937;BME280;14495;48.116;11.676;2022-08-04T00:27:51;95510.75;;;19.95;100.00
26937;BME280;14495;48.116;11.676;2022-08-04T00:30:16;95514.00;;;19.89;100.00
26937;BME280;14495;48.116;11.676;2022-08-04T00:32:42;95508.00;;;19.79;100.00
26937;BME280;14495;48.116;11.676;2022-08-04T00:35:08;95516.31;;;19.66;100.00
26937;BME280;14495;48.116;11.676;2022-08-04T00:37:36;95515.41;;;19.57;100.00
26937;BME280;14495;48.116;11.676;2022-08-04T00:40:57;95518.22;;;19.56;100.00
26937;BME280;14495;48.116;11.676;2022-08-04T00:43:14;95510.59;;;19.53;100.00
26937;BME280;14495;48.116;11.676;2022-08-04T00:54:04;95508.41;;;19.30;100.00
26937;BME280;14495;48.116;11.676;2022-08-04T01:02:38;95521.44;;;19.23;100.00
26937;BME280;14495;48.116;11.676;2022-08-04T01:05:06;95507.19;;;19.24;100.00
26937;BME280;14495;48.116;11.676;2022-08-04T01:07:59;95508.47;;;19.20;100.00
26937;BME280;14495;48.116;11.676;2022-08-04T01:13:33;95510.38;;;19.10;100.00
26937;BME280;14495;48.116;11.676;2022-08-04T01:16:05;95502.66;;;19.17;100.00
26937;BME280;14495;48.116;11.676;2022-08-04T01:18:58;95504.91;;;19.11;100.00
26937;BME280;14495;48.116;11.676;2022-08-04T01:29:14;95510.28;;;19.02;100.00
26937;BME280;14495;48.116;11.676;2022-08-04T01:32:00;95510.75;;;18.97;100.00
26937;BME280;14495;48.116;11.676;2022-08-04T01:34:28;95505.28;;;18.99;100.00
26937;BME280;14495;48.116;11.676;2022-08-04T01:39:50;95510.75;;;18.97;100.00
26937;BME280;14495;48.116;11.676;2022-08-04T01:42:22;95512.69;;;18.95;100.00
26937;BME280;14495;48.116;11.676;2022-08-04T01:44:50;95512.88;;;18.93;100.00
26937;BME280;14495;48.116;11.676;2022-08-04T01:47:20;95509.69;;;18.90;100.00
26937;BME280;14495;48.116;11.676;2022-08-04T01:49:48;95506.13;;;18.81;100.00
26937;BME280;14495;48.116;11.676;2022-08-04T01:52:15;95503.31;;;18.83;100.00
26937;BME280;14495;48.116;11.676;2022-08-04T01:54:41;95502.75;;;18.79;100.00
26937;BME280;14495;48.116;11.676;2022-08-04T01:57:09;95510.03;;;18.77;100.00
26937;BME280;14495;48.116;11.676;2022-08-04T01:59:36;95508.94;;;18.70;100.00
26937;BME280;14495;48.116;11.676;2022-08-04T02:02:02;95505.56;;;18.78;100.00
26937;BME280;14495;48.116;11.676;2022-08-04T02:04:27;95504.94;;;18.66;100.00
26937;BME280;14495;48.116;11.676;2022-08-04T02:07:13;95504.81;;;18.58;100.00
26937;BME280;14495;48.116;11.676;2022-08-04T02:12:58;95503.59;;;18.52;100.00
26937;BME280;14495;48.116;11.676;2022-08-04T02:18:03;95509.09;;;18.41;100.00
26937;BME280;14495;48.116;11.676;2022-08-04T02:20:33;95504.09;;;18.38;100.00
26937;BME280;14495;48.116;11.676;2022-08-04T02:25:27;95513.84;;;18.37;100.00
26937;BME280;14495;48.116;11.676;2022-08-04T02:28:10;95513.31;;;18.33;100.00
26937;BME280;14495;48.116;11.676;2022-08-04T02:30:43;95509.03;;;18.23;100.00
26937;BME280;14495;48.116;11.676;2022-08-04T02:33:12;95515.16;;;18.23;100.00
26937;BME280;14495;48.116;11.676;2022-08-04T02:35:39;95505.91;;;18.37;100.00
26937;BME280;14495;48.116;11.676;2022-08-04T02:41:08;95512.19;;;18.36;100.00
26937;BME280;14495;48.116;11.676;2022-08-04T02:43:34;95510.50;;;18.35;100.00
26937;BME280;14495;48.116;11.676;2022-08-04T02:46:00;95512.19;;;18.36;100.00
26937;BME280;14495;48.116;11.676;2022-08-04T02:48:28;95503.94;;;18.39;100.00
26937;BME280;14495;48.116;11.676;2022-08-04T02:50:56;95506.91;;;18.36;100.00
26937;BME280;14495;48.116;11.676;2022-08-04T02:53:24;95504.69;;;18.31;100.00
26937;BME280;14495;48.116;11.676;2022-08-04T02:55:51;95507.78;;;18.27;100.00
26937;BME280;14495;48.116;11.676;2022-08-04T02:58:19;95504.41;;;18.25;100.00
26937;BME280;14495;48.116;11.676;2022-08-04T03:00:44;95499.03;;;18.16;100.00
26937;BME280;14495;48.116;11.676;2022-08-04T03:03:23;95506.16;;;18.16;100.00
26937;BME280;14495;48.116;11.676;2022-08-04T03:08:35;95504.38;;;17.97;100.00
26937;BME280;14495;48.116;11.676;2022-08-04T03:14:27;95507.03;;;17.97;100.00
26937;BME280;14495;48.116;11.676;2022-08-04T03:35:06;95496.28;;;17.42;100.00
26937;BME280;14495;48.116;11.676;2022-08-04T04:00:03;95503.38;;;17.31;100.00
26937;BME280;14495;48.116;11.676;2022-08-04T04:03:00;95499.22;;;17.38;100.00
26937;BME280;14495;48.116;11.676;2022-08-04T04:05:57;95501.97;;;17.56;100.00
26937;BME280;14495;48.116;11.676;2022-08-04T04:25:18;95516.31;;;17.34;100.00
26937;BME280;14495;48.116;11.676;2022-08-04T04:28:21;95512.84;;;17.44;100.00
26937;BME280;14495;48.116;11.676;2022-08-04T04:31:02;95514.47;;;17.54;100.00
26937;BME280;14495;48.116;11.676;2022-08-04T04:39:31;95513.22;;;17.49;100.00
26937;BME280;14495;48.116;11.676;2022-08-04T04:49:59;95524.19;;;17.73;100.00
26937;BME280;14495;48.116;11.676;2022-08-04T04:52:37;95521.09;;;17.88;100.00
26937;BME280;14495;48.116;11.676;2022-08-04T04:55:21;95524.28;;;17.91;100.00
26937;BME280;14495;48.116;11.676;2022-08-04T04:57:52;95524.84;;;18.05;100.00
26937;BME280;14495;48.116;11.676;2022-08-04T05:00:22;95528.69;;;18.20;100.00
26937;BME280;14495;48.116;11.676;2022-08-04T05:03:07;95531.13;;;18.31;100.00
26937;BME280;14495;48.116;11.676;2022-08-04T05:13:53;95530.13;;;18.70;100.00
26937;BME280;14495;48.116;11.676;2022-08-04T05:16:38;95533.41;;;18.82;100.00
26937;BME280;14495;48.116;11.676;2022-08-04T05:22:03;95529.97;;;18.99;100.00
26937;BME280;14495;48.116;11.676;2022-08-04T05:24:36;95537.38;;;19.13;100.00
26937;BME280;14495;48.116;11.676;2022-08-04T05:27:09;95535.75;;;19.30;100.00
26937;BME280;14495;48.116;11.676;2022-08-04T05:29:39;95529.75;;;19.46;100.00
26937;BME280;14495;48.116;11.676;2022-08-04T05:32:11;95533.69;;;19.60;100.00
26937;BME280;14495;48.116;11.676;2022-08-04T05:34:59;95531.91;;;19.69;100.00
26937;BME280;14495;48.116;11.676;2022-08-04T05:37:27;95531.47;;;19.74;100.00
26937;BME280;14495;48.116;11.676;2022-08-04T05:40:04;95531.59;;;19.90;100.00
26937;BME280;14495;48.116;11.676;2022-08-04T05:42:36;95534.97;;;20.00;100.00
26937;BME280;14495;48.116;11.676;2022-08-04T05:45:03;95530.09;;;20.14;100.00
26937;BME280;14495;48.116;11.676;2022-08-04T05:47:30;95531.19;;;20.37;100.00
26937;BME280;14495;48.116;11.676;2022-08-04T05:49:57;95531.09;;;20.47;100.00
26937;BME280;14495;48.116;11.676;2022-08-04T05:52:24;95532.03;;;20.64;100.00
26937;BME280;14495;48.116;11.676;2022-08-04T05:54:51;95530.50;;;21.12;100.00
26937;BME280;14495;48.116;11.676;2022-08-04T05:57:17;95536.16;;;21.34;100.00
26937;BME280;14495;48.116;11.676;2022-08-04T05:59:43;95531.06;;;21.81;100.00
26937;BME280;14495;48.116;11.676;2022-08-04T06:02:12;95525.56;;;21.91;100.00
26937;BME280;14495;48.116;11.676;2022-08-04T06:04:40;95527.03;;;22.02;100.00
26937;BME280;14495;48.116;11.676;2022-08-04T06:07:06;95525.00;;;22.37;100.00
26937;BME280;14495;48.116;11.676;2022-08-04T06:09:32;95525.88;;;22.21;100.00
26937;BME280;14495;48.116;11.676;2022-08-04T06:12:06;95527.69;;;22.29;100.00
26937;BME280;14495;48.116;11.676;2022-08-04T06:14:44;95526.19;;;22.34;100.00
26937;BME280;14495;48.116;11.676;2022-08-04T06:17:14;95528.84;;;22.74;100.00
26937;BME280;14495;48.116;11.676;2022-08-04T06:19:46;95527.16;;;22.81;100.00
26937;BME280;14495;48.116;11.676;2022-08-04T06:22:15;95524.75;;;22.94;100.00
26937;BME280;14495;48.116;11.676;2022-08-04T06:24:44;95525.25;;;22.98;100.00
26937;BME280;14495;48.116;11.676;2022-08-04T06:27:13;95531.41;;;23.07;94.08
26937;BME280;14495;48.116;11.676;2022-08-04T06:29:39;95535.31;;;22.88;94.25
26937;BME280;14495;48.116;11.676;2022-08-04T06:32:06;95529.09;;;22.95;100.00
26937;BME280;14495;48.116;11.676;2022-08-04T06:34:53;95532.53;;;23.12;96.93
26937;BME280;14495;48.116;11.676;2022-08-04T06:37:20;95529.03;;;23.35;100.00
26937;BME280;14495;48.116;11.676;2022-08-04T06:39:47;95535.97;;;23.44;94.57
26937;BME280;14495;48.116;11.676;2022-08-04T06:42:13;95525.97;;;23.46;88.57
26937;BME280;14495;48.116;11.676;2022-08-04T06:44:41;95527.47;;;23.49;92.15
26937;BME280;14495;48.116;11.676;2022-08-04T06:47:07;95530.59;;;23.52;92.34
26937;BME280;14495;48.116;11.676;2022-08-04T06:49:36;95530.91;;;23.81;85.72
26937;BME280;14495;48.116;11.676;2022-08-04T06:52:02;95530.47;;;23.92;87.94
26937;BME280;14495;48.116;11.676;2022-08-04T06:54:28;95531.31;;;24.22;88.53
26937;BME280;14495;48.116;11.676;2022-08-04T06:56:55;95525.53;;;24.34;85.47
26937;BME280;14495;48.116;11.676;2022-08-04T06:59:23;95530.78;;;24.27;82.09
26937;BME280;14495;48.116;11.676;2022-08-04T07:01:50;95532.72;;;24.18;81.28
26937;BME280;14495;48.116;11.676;2022-08-04T07:04:17;95531.78;;;24.26;87.63
26937;BME280;14495;48.116;11.676;2022-08-04T07:06:42;95535.41;;;24.48;81.77
26937;BME280;14495;48.116;11.676;2022-08-04T07:09:08;95530.47;;;24.75;80.08
26937;BME280;14495;48.116;11.676;2022-08-04T07:11:34;95531.75;;;24.79;77.18
26937;BME280;14495;48.116;11.676;2022-08-04T07:14:00;95523.78;;;24.85;79.33
26937;BME280;14495;48.116;11.676;2022-08-04T07:16:27;95527.69;;;25.19;74.34
26937;BME280;14495;48.116;11.676;2022-08-04T07:18:53;95529.72;;;25.17;75.26
26937;BME280;14495;48.116;11.676;2022-08-04T07:21:22;95531.09;;;25.13;73.36
26937;BME280;14495;48.116;11.676;2022-08-04T07:23:48;95525.38;;;25.31;72.36
26937;BME280;14495;48.116;11.676;2022-08-04T07:26:14;95524.97;;;25.56;68.34
26937;BME280;14495;48.116;11.676;2022-08-04T07:28:41;95529.75;;;25.39;68.11
26937;BME280;14495;48.116;11.676;2022-08-04T07:31:10;95530.41;;;25.62;67.30
26937;BME280;14495;48.116;11.676;2022-08-04T07:33:36;95531.47;;;25.90;67.74
26937;BME280;14495;48.116;11.676;2022-08-04T07:36:02;95531.97;;;25.93;65.95
26937;BME280;14495;48.116;11.676;2022-08-04T07:38:27;95530.50;;;26.19;61.76
26937;BME280;14495;48.116;11.676;2022-08-04T07:40:54;95523.47;;;26.18;62.41
26937;BME280;14495;48.116;11.676;2022-08-04T07:43:20;95532.47;;;26.38;61.83
26937;BME280;14495;48.116;11.676;2022-08-04T07:45:45;95526.72;;;26.70;60.71
26937;BME280;14495;48.116;11.676;2022-08-04T07:48:11;95522.44;;;26.82;60.50
26937;BME280;14495;48.116;11.676;2022-08-04T07:50:41;95530.09;;;26.57;60.55
26937;BME280;14495;48.116;11.676;2022-08-04T07:53:07;95525.34;;;26.87;58.93
26937;BME280;14495;48.116;11.676;2022-08-04T07:55:33;95529.06;;;26.86;57.23
26937;BME280;14495;48.116;11.676;2022-08-04T07:57:59;95513.47;;;27.10;56.25
26937;BME280;14495;48.116;11.676;2022-08-04T08:00:24;95523.00;;;27.19;57.41
26937;BME280;14495;48.116;11.676;2022-08-04T08:02:52;95525.25;;;27.22;56.92
26937;BME280;14495;48.116;11.676;2022-08-04T08:05:19;95529.69;;;27.43;56.47
26937;BME280;14495;48.116;11.676;2022-08-04T08:07:49;95530.72;;;27.42;55.98
26937;BME280;14495;48.116;11.676;2022-08-04T08:10:14;95521.66;;;27.63;54.51
26937;BME280;14495;48.116;11.676;2022-08-04T08:12:41;95521.06;;;27.68;53.35
26937;BME280;14495;48.116;11.676;2022-08-04T08:15:09;95523.94;;;27.80;53.76
26937;BME280;14495;48.116;11.676;2022-08-04T08:17:35;95527.28;;;28.08;53.66
26937;BME280;14495;48.116;11.676;2022-08-04T08:20:01;95528.94;;;28.09;51.65
26937;BME280;14495;48.116;11.676;2022-08-04T08:22:27;95524.00;;;28.06;50.31
26937;BME280;14495;48.116;11.676;2022-08-04T08:24:53;95528.09;;;28.36;52.38
26937;BME280;14495;48.116;11.676;2022-08-04T08:27:19;95528.31;;;28.34;52.13
26937;BME280;14495;48.116;11.676;2022-08-04T08:29:44;95522.72;;;28.22;50.48
26937;BME280;14495;48.116;11.676;2022-08-04T08:32:11;95525.56;;;28.61;50.26
26937;BME280;14495;48.116;11.676;2022-08-04T08:34:38;95522.50;;;29.09;49.10
26937;BME280;14495;48.116;11.676;2022-08-04T08:40:27;95522.72;;;29.14;48.60
26937;BME280;14495;48.116;11.676;2022-08-04T08:51:29;95519.88;;;29.41;47.23
26937;BME280;14495;48.116;11.676;2022-08-04T09:00:06;95522.91;;;29.90;46.03
26937;BME280;14495;48.116;11.676;2022-08-04T09:05:47;95522.41;;;29.99;46.10
26937;BME280;14495;48.116;11.676;2022-08-04T09:08:27;95527.97;;;30.04;45.36
26937;BME280;14495;48.116;11.676;2022-08-04T09:13:33;95517.53;;;30.40;44.99
26937;BME280;14495;48.116;11.676;2022-08-04T09:21:32;95517.44;;;31.20;44.58
26937;BME280;14495;48.116;11.676;2022-08-04T09:24:13;95508.75;;;31.18;42.20
26937;BME280;14495;48.116;11.676;2022-08-04T09:27:00;95513.66;;;31.40;42.35
26937;BME280;14495;48.116;11.676;2022-08-04T09:30:06;95517.63;;;31.56;42.55
26937;BME280;14495;48.116;11.676;2022-08-04T09:35:22;95515.66;;;32.41;39.84
26937;BME280;14495;48.116;11.676;2022-08-04T09:38:08;95511.19;;;32.82;40.00
26937;BME280;14495;48.116;11.676;2022-08-04T09:40:48;95520.88;;;33.76;38.48
26937;BME280;14495;48.116;11.676;2022-08-04T09:43:34;95513.50;;;34.73;36.52
26937;BME280;14495;48.116;11.676;2022-08-04T09:46:05;95521.59;;;35.12;36.56
26937;BME280;14495;48.116;11.676;2022-08-04T09:48:43;95520.19;;;34.87;34.76
26937;BME280;14495;48.116;11.676;2022-08-04T09:57:05;95511.47;;;36.43;32.27
26937;BME280;14495;48.116;11.676;2022-08-04T09:59:37;95508.00;;;36.53;33.25
26937;BME280;14495;48.116;11.676;2022-08-04T10:02:06;95508.41;;;37.25;31.61
26937;BME280;14495;48.116;11.676;2022-08-04T10:04:34;95511.56;;;36.58;32.17
26937;BME280;14495;48.116;11.676;2022-08-04T10:10:19;95508.88;;;36.64;31.85
26937;BME280;14495;48.116;11.676;2022-08-04T10:15:48;95503.06;;;37.66;30.82
26937;BME280;14495;48.116;11.676;2022-08-04T10:26:24;95498.47;;;38.48;31.44
26937;BME280;14495;48.116;11.676;2022-08-04T10:29:00;95493.19;;;38.83;30.00
26937;BME280;14495;48.116;11.676;2022-08-04T10:31:43;95500.09;;;38.60;29.06
26937;BME280;14495;48.116;11.676;2022-08-04T10:34:27;95501.19;;;38.43;28.42
26937;BME280;14495;48.116;11.676;2022-08-04T10:37:18;95494.59;;;38.75;28.68
26937;BME280;14495;48.116;11.676;2022-08-04T10:40:04;95497.00;;;39.02;27.90
26937;BME280;14495;48.116;11.676;2022-08-04T10:42:59;95487.81;;;39.33;26.08
26937;BME280;14495;48.116;11.676;2022-08-04T10:45:39;95479.34;;;38.54;27.08
26937;BME280;14495;48.116;11.676;2022-08-04T10:48:39;95481.94;;;37.20;28.86
26937;BME280;14495;48.116;11.676;2022-08-04T10:51:27;95499.56;;;38.63;27.70
26937;BME280;14495;48.116;11.676;2022-08-04T10:54:01;95491.66;;;38.36;29.95
26937;BME280;14495;48.116;11.676;2022-08-04T10:59:10;95484.69;;;39.60;27.42
26937;BME280;14495;48.116;11.676;2022-08-04T11:01:43;95485.78;;;38.99;30.10
26937;BME280;14495;48.116;11.676;2022-08-04T11:06:58;95482.50;;;40.60;26.50
26937;BME280;14495;48.116;11.676;2022-08-04T11:09:24;95477.84;;;40.31;25.59
26937;BME280;14495;48.116;11.676;2022-08-04T11:11:57;95480.63;;;40.85;26.74
26937;BME280;14495;48.116;11.676;2022-08-04T11:14:32;95487.41;;;40.39;25.90
26937;BME280;14495;48.116;11.676;2022-08-04T11:17:12;95480.00;;;40.39;26.21
26937;BME280;14495;48.116;11.676;2022-08-04T11:19:46;95472.78;;;40.73;26.10
26937;BME280;14495;48.116;11.676;2022-08-04T11:22:24;95476.31;;;40.79;27.06
26937;BME280;14495;48.116;11.676;2022-08-04T11:27:39;95466.38;;;41.50;24.58
26937;BME280;14495;48.116;11.676;2022-08-04T11:30:09;95477.63;;;41.48;24.70
26937;BME280;14495;48.116;11.676;2022-08-04T11:33:02;95473.25;;;41.47;25.10
26937;BME280;14495;48.116;11.676;2022-08-04T11:35:43;95473.38;;;41.94;24.52
26937;BME280;14495;48.116;11.676;2022-08-04T11:38:21;95469.78;;;40.99;24.16
26937;BME280;14495;48.116;11.676;2022-08-04T11:40:52;95464.88;;;41.39;25.02
26937;BME280;14495;48.116;11.676;2022-08-04T11:43:23;95466.91;;;40.85;25.90
26937;BME280;14495;48.116;11.676;2022-08-04T11:45:57;95465.03;;;40.56;25.42
26937;BME280;14495;48.116;11.676;2022-08-04T11:48:36;95465.50;;;41.11;24.51
26937;BME280;14495;48.116;11.676;2022-08-04T11:51:06;95470.09;;;41.78;24.54
26937;BME280;14495;48.116;11.676;2022-08-04T11:53:34;95474.22;;;41.57;24.24
26937;BME280;14495;48.116;11.676;2022-08-04T11:56:04;95462.94;;;42.48;23.94
26937;BME280;14495;48.116;11.676;2022-08-04T11:58:31;95466.72;;;41.62;22.38
26937;BME280;14495;48.116;11.676;2022-08-04T12:01:07;95457.41;;;42.76;23.15
26937;BME280;14495;48.116;11.676;2022-08-04T12:03:45;95462.72;;;42.25;22.99
26937;BME280;14495;48.116;11.676;2022-08-04T12:06:22;95458.91;;;41.12;22.58
26937;BME280;14495;48.116;11.676;2022-08-04T12:12:17;95456.50;;;41.49;22.93
26937;BME280;14495;48.116;11.676;2022-08-04T12:20:44;95446.84;;;42.08;22.25
26937;BME280;14495;48.116;11.676;2022-08-04T12:23:35;95445.25;;;42.21;21.85
26937;BME280;14495;48.116;11.676;2022-08-04T12:26:26;95452.16;;;41.67;22.21
26937;BME280;14495;48.116;11.676;2022-08-04T12:28:58;95444.44;;;41.69;22.26
26937;BME280;14495;48.116;11.676;2022-08-04T12:31:33;95444.97;;;42.04;20.70
26937;BME280;14495;48.116;11.676;2022-08-04T12:34:05;95445.13;;;41.94;21.62
26937;BME280;14495;48.116;11.676;2022-08-04T12:36:42;95440.75;;;42.86;21.36
26937;BME280;14495;48.116;11.676;2022-08-04T12:39:12;95444.72;;;42.80;21.22
26937;BME280;14495;48.116;11.676;2022-08-04T12:42:28;95443.34;;;42.03;22.10
26937;BME280;14495;48.116;11.676;2022-08-04T12:44:33;95441.47;;;42.50;21.49
26937;BME280;14495;48.116;11.676;2022-08-04T12:47:02;95439.84;;;43.04;21.10
26937;BME280;14495;48.116;11.676;2022-08-04T12:49:31;95438.16;;;42.34;20.45
26937;BME280;14495;48.116;11.676;2022-08-04T12:51:58;95436.41;;;41.91;22.24
26937;BME280;14495;48.116;11.676;2022-08-04T12:54:25;95434.84;;;42.18;21.49
26937;BME280;14495;48.116;11.676;2022-08-04T12:56:52;95443.78;;;42.10;21.08
26937;BME280;14495;48.116;11.676;2022-08-04T12:59:21;95437.09;;;42.16;21.09
26937;BME280;14495;48.116;11.676;2022-08-04T13:01:48;95425.97;;;41.37;20.72
26937;BME280;14495;48.116;11.676;2022-08-04T13:04:24;95426.13;;;41.26;22.47
26937;BME280;14495;48.116;11.676;2022-08-04T13:06:54;95437.16;;;41.40;21.59
26937;BME280;14495;48.116;11.676;2022-08-04T13:09:22;95429.41;;;41.04;22.77
26937;BME280;14495;48.116;11.676;2022-08-04T13:11:52;95431.88;;;41.63;22.83
26937;BME280;14495;48.116;11.676;2022-08-04T13:14:19;95430.44;;;41.70;22.73
26937;BME280;14495;48.116;11.676;2022-08-04T13:16:46;95431.16;;;41.38;22.15
26937;BME280;14495;48.116;11.676;2022-08-04T13:19:11;95421.47;;;41.27;21.28
26937;BME280;14495;48.116;11.676;2022-08-04T13:21:43;95426.75;;;40.75;22.06
26937;BME280;14495;48.116;11.676;2022-08-04T13:24:14;95420.81;;;40.92;22.85
26937;BME280;14495;48.116;11.676;2022-08-04T13:27:03;95423.03;;;40.66;21.64
26937;BME280;14495;48.116;11.676;2022-08-04T13:29:35;95420.66;;;40.00;23.32
26937;BME280;14495;48.116;11.676;2022-08-04T13:32:01;95415.31;;;40.14;24.38
26937;BME280;14495;48.116;11.676;2022-08-04T13:34:29;95419.31;;;39.63;23.76
26937;BME280;14495;48.116;11.676;2022-08-04T13:36:57;95417.16;;;40.24;24.34
26937;BME280;14495;48.116;11.676;2022-08-04T13:39:23;95409.53;;;39.92;23.04
26937;BME280;14495;48.116;11.676;2022-08-04T13:41:55;95407.56;;;39.97;24.19
26937;BME280;14495;48.116;11.676;2022-08-04T13:44:25;95401.28;;;39.18;24.46
26937;BME280;14495;48.116;11.676;2022-08-04T13:46:59;95403.97;;;39.68;23.81
26937;BME280;14495;48.116;11.676;2022-08-04T13:49:25;95395.91;;;39.47;24.81
26937;BME280;14495;48.116;11.676;2022-08-04T13:51:56;95399.16;;;39.54;23.90
26937;BME280;14495;48.116;11.676;2022-08-04T13:54:23;95396.13;;;39.56;24.45
26937;BME280;14495;48.116;11.676;2022-08-04T13:56:54;95393.81;;;39.34;23.64
26937;BME280;14495;48.116;11.676;2022-08-04T13:59:23;95386.28;;;39.15;24.57
26937;BME280;14495;48.116;11.676;2022-08-04T14:01:59;95379.66;;;38.66;25.24
26937;BME280;14495;48.116;11.676;2022-08-04T14:04:27;95387.94;;;38.41;24.44
26937;BME280;14495;48.116;11.676;2022-08-04T14:07:11;95386.91;;;38.16;25.48
26937;BME280;14495;48.116;11.676;2022-08-04T14:09:38;95381.44;;;38.32;25.51
26937;BME280;14495;48.116;11.676;2022-08-04T14:12:09;95375.34;;;38.60;25.64
26937;BME280;14495;48.116;11.676;2022-08-04T14:14:43;95378.50;;;37.77;26.13
26937;BME280;14495;48.116;11.676;2022-08-04T14:17:11;95369.47;;;38.02;26.05
26937;BME280;14495;48.116;11.676;2022-08-04T14:19:56;95376.56;;;37.87;25.42
26937;BME280;14495;48.116;11.676;2022-08-04T14:24:58;95377.38;;;37.31;26.27
26937;BME280;14495;48.116;11.676;2022-08-04T14:27:24;95381.19;;;37.36;26.46
26937;BME280;14495;48.116;11.676;2022-08-04T14:29:49;95377.63;;;37.35;27.03
26937;BME280;14495;48.116;11.676;2022-08-04T14:32:15;95371.84;;;37.11;26.37
26937;BME280;14495;48.116;11.676;2022-08-04T14:34:42;95373.59;;;36.54;26.84
26937;BME280;14495;48.116;11.676;2022-08-04T14:37:10;95374.81;;;36.94;26.85
26937;BME280;14495;48.116;11.676;2022-08-04T14:39:50;95364.28;;;36.50;27.06
26937;BME280;14495;48.116;11.676;2022-08-04T14:42:18;95367.66;;;36.67;27.22
26937;BME280;14495;48.116;11.676;2022-08-04T14:44:57;95367.78;;;36.30;26.75
26937;BME280;14495;48.116;11.676;2022-08-04T14:47:46;95356.59;;;36.31;28.63
26937;BME280;14495;48.116;11.676;2022-08-04T14:50:13;95362.81;;;35.79;29.28
26937;BME280;14495;48.116;11.676;2022-08-04T14:52:39;95365.09;;;35.60;28.63
26937;BME280;14495;48.116;11.676;2022-08-04T14:55:34;95362.63;;;35.58;28.58
26937;BME280;14495;48.116;11.676;2022-08-04T14:58:00;95353.81;;;35.41;29.28
26937;BME280;14495;48.116;11.676;2022-08-04T15:00:28;95365.00;;;35.50;29.38
26937;BME280;14495;48.116;11.676;2022-08-04T15:03:00;95358.22;;;35.20;29.12
26937;BME280;14495;48.116;11.676;2022-08-04T15:05:27;95357.88;;;35.11;29.52
26937;BME280;14495;48.116;11.676;2022-08-04T15:07:54;95358.13;;;35.15;29.62
26937;BME280;14495;48.116;11.676;2022-08-04T15:10:20;95356.69;;;35.02;30.59
26937;BME280;14495;48.116;11.676;2022-08-04T15:12:45;95358.13;;;35.15;29.48
26937;BME280;14495;48.116;11.676;2022-08-04T15:15:11;95360.78;;;35.04;30.09
26937;BME280;14495;48.116;11.676;2022-08-04T15:17:36;95353.22;;;34.84;30.20
26937;BME280;14495;48.116;11.676;2022-08-04T15:20:02;95363.22;;;34.79;29.88
26937;BME280;14495;48.116;11.676;2022-08-04T15:22:27;95355.84;;;34.52;31.04
26937;BME280;14495;48.116;11.676;2022-08-04T15:24:53;95351.47;;;34.29;30.75
26937;BME280;14495;48.116;11.676;2022-08-04T15:27:20;95351.34;;;34.02;31.08
26937;BME280;14495;48.116;11.676;2022-08-04T15:29:49;95345.25;;;33.89;30.79
26937;BME280;14495;48.116;11.676;2022-08-04T15:32:15;95350.50;;;33.79;31.54
26937;BME280;14495;48.116;11.676;2022-08-04T15:34:48;95344.28;;;33.79;31.92
26937;BME280;14495;48.116;11.676;2022-08-04T15:37:17;95340.75;;;33.78;32.14
26937;BME280;14495;48.116;11.676;2022-08-04T15:39:58;95340.88;;;33.88;31.29
26937;BME280;14495;48.116;11.676;2022-08-04T15:42:35;95340.41;;;33.58;31.57
26937;BME280;14495;48.116;11.676;2022-08-04T15:45:23;95341.38;;;33.51;31.40
26937;BME280;14495;48.116;11.676;2022-08-04T15:50:26;95330.41;;;33.41;30.99
26937;BME280;14495;48.116;11.676;2022-08-04T15:55:42;95324.66;;;33.21;30.84
26937;BME280;14495;48.116;11.676;2022-08-04T15:58:12;95325.63;;;33.15;31.46
26937;BME280;14495;48.116;11.676;2022-08-04T16:21:51;95318.22;;;33.10;31.92
26937;BME280;14495;48.116;11.676;2022-08-04T16:24:21;95311.50;;;33.12;31.45
26937;BME280;14495;48.116;11.676;2022-08-04T16:26:59;95303.28;;;33.07;32.53
26937;BME280;14495;48.116;11.676;2022-08-04T16:29:26;95310.34;;;33.08;31.85
26937;BME280;14495;48.116;11.676;2022-08-04T16:37:09;95310.44;;;32.68;32.71
26937;BME280;14495;48.116;11.676;2022-08-04T16:39:36;95314.34;;;32.60;32.19
26937;BME280;14495;48.116;11.676;2022-08-04T16:50:18;95312.63;;;32.42;32.06
26937;BME280;14495;48.116;11.676;2022-08-04T16:52:48;95310.66;;;32.38;31.63
26937;BME280;14495;48.116;11.676;2022-08-04T16:55:15;95308.53;;;32.40;32.38
26937;BME280;14495;48.116;11.676;2022-08-04T16:57:45;95308.88;;;32.43;32.25
26937;BME280;14495;48.116;11.676;2022-08-04T17:00:11;95312.84;;;32.41;33.07
26937;BME280;14495;48.116;11.676;2022-08-04T17:02:36;95300.41;;;32.40;32.74
26937;BME280;14495;48.116;11.676;2022-08-04T17:05:02;95301.56;;;32.44;32.55
26937;BME280;14495;48.116;11.676;2022-08-04T17:07:27;95291.97;;;32.36;32.20
26937;BME280;14495;48.116;11.676;2022-08-04T17:09:53;95302.91;;;32.29;32.95
26937;BME280;14495;48.116;11.676;2022-08-04T17:12:19;95297.88;;;32.21;32.80